sensor_id;sensor_type;location;lat;lon;timestamp;temperature;humidity
11583;DHT22;34299;50.820;4.548;2023-04-25T20:22:31;6.70;99.90
11583;DHT22;34299;50.820;4.548;2023-04-25T20:25:02;6.60;99.90
11583;DHT22;34299;50.820;4.548;2023-04-25T20:27:30;6.50;99.90
11583;DHT22;34299;50.820;4.548;2023-04-25T20:29:56;6.30;99.90
11583;DHT22;34299;50.820;4.548;2023-04-25T20:32:28;6.20;99.90
11583;DHT22;34299;50.820;4.548;2023-04-25T20:34:56;6.20;99.90
11583;DHT22;34299;50.820;4.548;2023-04-25T20:37:24;6.20;99.90
11583;DHT22;34299;50.820;4.548;2023-04-25T20:39:52;6.20;99.90
11583;DHT22;34299;50.820;4.548;2023-04-25T20:42:19;6.30;99.90
11583;DHT22;34299;50.820;4.548;2023-04-25T20:44:46;6.30;99.90
11583;DHT22;34299;50.820;4.548;2023-04-25T20:47:13;6.10;99.90
11583;DHT22;34299;50.820;4.548;2023-04-25T20:49:41;6.00;99.90
11583;DHT22;34299;50.820;4.548;2023-04-25T20:52:08;6.20;99.90
11583;DHT22;34299;50.820;4.548;2023-04-25T20:54:36;6.10;99.90
11583;DHT22;34299;50.820;4.548;2023-04-25T20:57:03;5.80;99.90
11583;DHT22;34299;50.820;4.548;2023-04-25T20:59:31;5.70;99.90
11583;DHT22;34299;50.820;4.548;2023-04-25T21:01:58;5.70;99.90
11583;DHT22;34299;50.820;4.548;2023-04-25T21:04:25;5.80;99.90
11583;DHT22;34299;50.820;4.548;2023-04-25T21:06:52;5.80;99.90
11583;DHT22;34299;50.820;4.548;2023-04-25T21:09:19;5.70;99.90
11583;DHT22;34299;50.820;4.548;2023-04-25T21:11:47;5.50;99.90
11583;DHT22;34299;50.820;4.548;2023-04-25T21:14:15;5.50;99.90
11583;DHT22;34299;50.820;4.548;2023-04-25T21:16:43;5.60;99.90
11583;DHT22;34299;50.820;4.548;2023-04-25T21:19:10;5.50;99.90
11583;DHT22;34299;50.820;4.548;2023-04-25T21:21:37;5.30;99.90
11583;DHT22;34299;50.820;4.548;2023-04-25T21:24:05;5.20;99.90
11583;DHT22;34299;50.820;4.548;2023-04-25T21:26:32;5.20;99.90
11583;DHT22;34299;50.820;4.548;2023-04-25T21:29:00;5.20;99.90
11583;DHT22;34299;50.820;4.548;2023-04-25T21:31:27;5.00;99.90
11583;DHT22;34299;50.820;4.548;2023-04-25T21:33:54;5.10;99.90
11583;DHT22;34299;50.820;4.548;2023-04-25T21:36:21;4.90;99.90
11583;DHT22;34299;50.820;4.548;2023-04-25T21:38:48;4.70;99.90
11583;DHT22;34299;50.820;4.548;2023-04-25T21:41:15;4.60;99.90
11583;DHT22;34299;50.820;4.548;2023-04-25T21:43:42;4.40;99.90
11583;DHT22;34299;50.820;4.548;2023-04-25T21:46:11;4.30;99.90
11583;DHT22;34299;50.820;4.548;2023-04-25T21:48:37;4.20;99.90
11583;DHT22;34299;50.820;4.548;2023-04-25T21:51:05;4.10;99.90
11583;DHT22;34299;50.820;4.548;2023-04-25T21:53:32;4.00;99.90
11583;DHT22;34299;50.820;4.548;2023-04-25T21:55:59;3.90;99.90
11583;DHT22;34299;50.820;4.548;2023-04-25T21:58:25;3.80;99.90
11583;DHT22;34299;50.820;4.548;2023-04-25T22:00:52;3.70;99.90
11583;DHT22;34299;50.820;4.548;2023-04-25T22:03:21;3.50;99.90
11583;DHT22;34299;50.820;4.548;2023-04-25T22:05:48;3.40;99.90
11583;DHT22;34299;50.820;4.548;2023-04-25T22:08:15;3.30;99.90
11583;DHT22;34299;50.820;4.548;2023-04-25T22:10:42;3.30;99.90
11583;DHT22;34299;50.820;4.548;2023-04-25T22:13:09;3.40;99.90
11583;DHT22;34299;50.820;4.548;2023-04-25T22:15:36;3.40;99.90
11583;DHT22;34299;50.820;4.548;2023-04-25T22:18:04;3.40;99.90
11583;DHT22;34299;50.820;4.548;2023-04-25T22:20:32;3.30;99.90
11583;DHT22;34299;50.820;4.548;2023-04-25T22:22:59;3.40;99.90
11583;DHT22;34299;50.820;4.548;2023-04-25T22:25:26;3.30;99.90
11583;DHT22;34299;50.820;4.548;2023-04-25T22:27:53;3.20;99.90
11583;DHT22;34299;50.820;4.548;2023-04-25T22:30:22;3.10;99.90
11583;DHT22;34299;50.820;4.548;2023-04-25T22:32:49;3.10;99.90
11583;DHT22;34299;50.820;4.548;2023-04-25T22:35:16;3.10;99.90
11583;DHT22;34299;50.820;4.548;2023-04-25T22:37:45;2.80;99.90
11583;DHT22;34299;50.820;4.548;2023-04-25T22:40:12;2.80;99.90
11583;DHT22;34299;50.820;4.548;2023-04-25T22:42:41;2.70;99.90
11583;DHT22;34299;50.820;4.548;2023-04-25T22:45:09;2.60;99.90
11583;DHT22;34299;50.820;4.548;2023-04-25T22:47:37;2.60;99.90
11583;DHT22;34299;50.820;4.548;2023-04-25T22:50:06;2.80;99.90
11583;DHT22;34299;50.820;4.548;2023-04-25T22:52:37;2.80;99.90
11583;DHT22;34299;50.820;4.548;2023-04-25T22:55:06;3.20;99.90
11583;DHT22;34299;50.820;4.548;2023-04-25T22:57:35;3.10;99.90
11583;DHT22;34299;50.820;4.548;2023-04-25T23:00:03;3.20;99.90
11583;DHT22;34299;50.820;4.548;2023-04-25T23:02:36;3.40;99.90
11583;DHT22;34299;50.820;4.548;2023-04-25T23:05:04;3.50;99.90
11583;DHT22;34299;50.820;4.548;2023-04-25T23:07:31;3.60;99.90
11583;DHT22;34299;50.820;4.548;2023-04-25T23:09:59;3.60;99.90
11583;DHT22;34299;50.820;4.548;2023-04-25T23:12:27;3.40;99.90
11583;DHT22;34299;50.820;4.548;2023-04-25T23:14:54;3.10;99.90
11583;DHT22;34299;50.820;4.548;2023-04-25T23:17:21;2.90;99.90
11583;DHT22;34299;50.820;4.548;2023-04-25T23:19:48;2.70;99.90
11583;DHT22;34299;50.820;4.548;2023-04-25T23:22:15;2.50;99.90
11583;DHT22;34299;50.820;4.548;2023-04-25T23:24:42;2.30;99.90
11583;DHT22;34299;50.820;4.548;2023-04-25T23:27:09;2.30;99.90
11583;DHT22;34299;50.820;4.548;2023-04-25T23:29:37;2.20;99.90
11583;DHT22;34299;50.820;4.548;2023-04-25T23:32:05;2.10;99.90
11583;DHT22;34299;50.820;4.548;2023-04-25T23:34:32;2.30;99.90
11583;DHT22;34299;50.820;4.548;2023-04-25T23:36:59;2.50;99.90
11583;DHT22;34299;50.820;4.548;2023-04-25T23:39:28;2.80;99.90
11583;DHT22;34299;50.820;4.548;2023-04-25T23:41:55;2.90;99.90
11583;DHT22;34299;50.820;4.548;2023-04-25T23:44:22;2.60;99.90
11583;DHT22;34299;50.820;4.548;2023-04-25T23:46:50;2.30;99.90
11583;DHT22;34299;50.820;4.548;2023-04-25T23:49:17;2.20;99.90
11583;DHT22;34299;50.820;4.548;2023-04-25T23:51:44;2.40;99.90
11583;DHT22;34299;50.820;4.548;2023-04-25T23:54:11;2.30;99.90
11583;DHT22;34299;50.820;4.548;2023-04-25T23:56:39;2.30;99.90
11583;DHT22;34299;50.820;4.548;2023-04-25T23:59:06;2.30;99.90
